Time;durP1;ratioP1;P1;durP2;ratioP2;P2;SDS_P1;SDS_P2;PMS_P1;PMS_P2;Temp;Humidity;BMP_temperature;BMP_pressure;BME280_temperature;BME280_humidity;BME280_pressure;Samples;Min_cycle;Max_cycle;Signal;HPM_P1;HPM_P2
2023/02/18 00:01:35;;;;;;;10.13;8.93;;;10.40;99.90;;;10.89;100.00;98613.22;5022045;28;20042;-62
2023/02/18 00:04:03;;;;;;;9.65;8.68;;;10.40;99.90;;;10.80;100.00;98615.22;5024610;28;20061;-63
2023/02/18 00:06:33;;;;;;;9.75;8.60;;;10.30;99.90;;;10.73;100.00;98619.75;5019790;28;20385;-63
2023/02/18 00:09:03;;;;;;;8.73;7.30;;;10.40;99.90;;;10.60;100.00;98614.00;5015791;28;20052;-63
2023/02/18 00:11:33;;;;;;;9.63;7.75;;;10.50;99.90;;;10.70;100.00;98613.75;5052407;28;20400;-63
2023/02/18 00:14:06;;;;;;;10.55;7.90;;;10.40;99.90;;;10.59;100.00;98609.72;5021023;28;20057;-63
2023/02/18 00:16:33;;;;;;;10.50;9.05;;;10.40;99.90;;;10.36;100.00;98607.72;5025075;28;20473;-63
2023/02/18 00:19:04;;;;;;;9.60;7.68;;;10.40;99.90;;;10.37;100.00;98601.63;5023908;28;20053;-62
2023/02/18 00:21:33;;;;;;;9.93;7.43;;;10.40;99.90;;;10.45;100.00;98609.22;5025660;28;20065;-62
2023/02/18 00:24:00;;;;;;;9.50;8.10;;;10.40;99.90;;;10.44;100.00;98618.72;5022215;28;20141;-62
2023/02/18 00:26:27;;;;;;;8.82;7.38;;;10.40;99.90;;;10.56;100.00;98599.41;5015536;28;20046;-63
2023/02/18 00:28:55;;;;;;;8.00;7.03;;;10.40;99.90;;;10.48;100.00;98627.31;5022817;28;20773;-62
2023/02/18 00:31:29;;;;;;;7.28;6.57;;;10.60;99.90;;;10.55;100.00;98613.28;5025477;28;20072;-62
2023/02/18 00:33:58;;;;;;;8.13;6.38;;;10.60;99.90;;;10.47;100.00;98623.03;5022606;28;20081;-62
2023/02/18 00:36:26;;;;;;;7.85;6.75;;;10.60;99.90;;;10.46;100.00;98606.56;5027222;28;20096;-62
2023/02/18 00:38:56;;;;;;;10.45;7.03;;;10.50;99.90;;;10.55;100.00;98609.84;5024114;28;20132;-62
2023/02/18 00:41:26;;;;;;;8.55;7.60;;;10.60;99.90;;;10.39;100.00;98612.81;5027454;28;20052;-63
2023/02/18 00:43:53;;;;;;;9.13;7.03;;;10.60;99.90;;;10.56;100.00;98596.81;5023749;28;20041;-63
2023/02/18 00:46:22;;;;;;;10.60;7.68;;;10.60;99.90;;;10.33;100.00;98597.41;5038422;28;20054;-62
2023/02/18 00:48:49;;;;;;;9.20;7.63;;;10.60;99.90;;;10.41;100.00;98595.47;5027342;28;20365;-62
2023/02/18 00:51:16;;;;;;;9.10;7.25;;;10.60;99.90;;;10.44;100.00;98589.34;5026505;28;20054;-62
2023/02/18 00:53:46;;;;;;;12.27;8.07;;;10.50;99.90;;;10.40;100.00;98604.16;5026404;28;20079;-63
2023/02/18 00:56:16;;;;;;;9.95;8.80;;;10.40;99.90;;;10.30;100.00;98601.81;5026602;28;20054;-62
2023/02/18 00:58:43;;;;;;;12.25;9.82;;;10.50;99.90;;;10.24;100.00;98603.66;5023175;28;20520;-62
2023/02/18 01:01:10;;;;;;;10.05;8.63;;;10.40;99.90;;;10.20;100.00;98609.81;5028767;28;20045;-62
2023/02/18 01:03:40;;;;;;;11.57;10.05;;;10.40;99.90;;;10.30;100.00;98596.63;5009671;28;20409;-62
2023/02/18 01:06:08;;;;;;;10.07;9.05;;;10.30;99.90;;;10.25;100.00;98625.25;5029536;28;20046;-63
2023/02/18 01:08:38;;;;;;;10.73;9.20;;;10.30;99.90;;;10.21;100.00;98616.69;5028526;28;20451;-62
2023/02/18 01:11:07;;;;;;;10.32;9.27;;;10.30;99.90;;;10.15;100.00;98614.25;5025996;28;20041;-62
2023/02/18 01:13:35;;;;;;;11.60;10.15;;;10.20;99.90;;;10.21;100.00;98636.59;5028484;28;20059;-62
2023/02/18 01:16:02;;;;;;;13.15;10.48;;;10.20;99.90;;;10.30;100.00;98631.22;5025071;28;20820;-62
2023/02/18 01:18:29;;;;;;;12.10;9.27;;;10.20;99.90;;;10.26;100.00;98656.38;5024545;28;20056;-62
2023/02/18 01:20:58;;;;;;;10.02;8.35;;;10.20;99.90;;;10.30;100.00;98669.28;5025840;28;20041;-61
2023/02/18 01:23:25;;;;;;;9.48;8.45;;;10.20;99.90;;;10.41;100.00;98660.34;5027292;28;20500;-63
2023/02/18 01:25:52;;;;;;;12.25;8.05;;;10.30;99.90;;;10.39;100.00;98648.31;5028384;28;20680;-62
2023/02/18 01:28:23;;;;;;;8.10;7.30;;;10.30;99.90;;;10.47;100.00;98638.59;5027494;28;20049;-62
2023/02/18 01:30:52;;;;;;;9.23;7.10;;;10.40;99.90;;;10.43;100.00;98634.38;5028708;28;20743;-62
2023/02/18 01:33:20;;;;;;;12.50;7.78;;;10.30;99.90;;;10.48;100.00;98622.13;5026381;28;20059;-63
2023/02/18 01:35:47;;;;;;;10.50;7.93;;;10.40;99.90;;;10.52;100.00;98591.75;5024394;28;20481;-62
2023/02/18 01:38:15;;;;;;;9.35;7.05;;;10.40;99.90;;;10.49;100.00;98599.59;5026187;28;20060;-63
2023/02/18 01:40:52;;;;;;;9.80;7.53;;;10.50;99.90;;;10.46;100.00;98583.22;5027499;28;20045;-62
2023/02/18 01:43:20;;;;;;;9.07;7.55;;;10.50;99.90;;;10.55;100.00;98582.13;5027251;28;20156;-62
2023/02/18 01:46:15;;;;;;;8.77;6.57;;;10.50;99.90;;;10.49;100.00;98591.81;5026516;28;20045;-62
2023/02/18 01:48:52;;;;;;;9.52;7.45;;;10.60;99.90;;;10.47;100.00;98578.91;5022693;28;20489;-62
2023/02/18 01:51:27;;;;;;;10.80;7.32;;;10.60;99.90;;;10.52;100.00;98586.56;5022457;28;20133;-62
2023/02/18 01:54:10;;;;;;;11.13;8.35;;;10.50;99.90;;;10.45;100.00;98585.88;5026794;28;20042;-63
2023/02/18 01:56:56;;;;;;;9.80;8.57;;;10.40;99.90;;;10.24;100.00;98582.91;5035728;28;20042;-62
2023/02/18 01:59:33;;;;;;;9.32;7.38;;;10.30;99.90;;;10.19;100.00;98597.69;5020443;28;20049;-62
2023/02/18 02:02:00;;;;;;;10.35;9.05;;;10.20;99.90;;;10.00;100.00;98610.28;5023599;28;20046;-62
2023/02/18 02:04:27;;;;;;;9.98;8.68;;;10.10;99.90;;;10.09;100.00;98595.41;5026447;28;20049;-62
2023/02/18 02:06:54;;;;;;;9.70;8.70;;;10.10;99.90;;;10.22;100.00;98607.19;5024765;28;20045;-62
2023/02/18 02:09:25;;;;;;;11.05;8.50;;;10.10;99.90;;;10.05;100.00;98631.75;5026311;28;20133;-63
2023/02/18 02:12:20;;;;;;;12.98;8.93;;;10.10;99.90;;;10.13;100.00;98600.47;5027316;28;20107;-62
2023/02/18 02:15:31;;;;;;;10.32;7.97;;;10.10;99.90;;;10.18;100.00;98577.00;5025036;28;20046;-62
2023/02/18 02:18:26;;;;;;;12.30;9.23;;;10.10;99.90;;;10.20;100.00;98585.59;5021836;28;20461;-62
2023/02/18 02:21:24;;;;;;;11.43;8.45;;;10.10;99.90;;;10.16;100.00;98571.00;5027007;28;20052;-62
2023/02/18 02:24:15;;;;;;;11.85;9.30;;;10.10;99.90;;;10.20;100.00;98570.03;5024371;28;20575;-62
2023/02/18 02:26:47;;;;;;;13.27;9.65;;;10.00;99.90;;;10.07;100.00;98560.84;5025152;28;20519;-62
2023/02/18 02:29:29;;;;;;;11.95;10.15;;;10.00;99.90;;;9.98;100.00;98557.59;5026764;28;20140;-62
2023/02/18 02:32:23;;;;;;;13.10;10.77;;;10.00;99.90;;;10.07;100.00;98582.44;5026271;28;20092;-63
2023/02/18 02:35:23;;;;;;;10.68;8.80;;;10.00;99.90;;;9.98;100.00;98573.16;5026059;28;20048;-62
2023/02/18 02:38:04;;;;;;;12.07;8.80;;;10.00;99.90;;;10.00;100.00;98567.94;5024415;28;20049;-62
2023/02/18 02:40:37;;;;;;;10.30;8.70;;;10.00;99.90;;;10.15;100.00;98564.97;5021124;28;20065;-62
2023/02/18 02:43:42;;;;;;;12.80;10.70;;;10.00;99.90;;;10.13;100.00;98551.19;5026321;28;20045;-61
2023/02/18 02:46:26;;;;;;;14.65;10.13;;;10.00;99.90;;;10.03;100.00;98547.09;5022800;28;20055;-62
2023/02/18 02:49:26;;;;;;;17.00;10.18;;;10.00;99.90;;;10.10;100.00;98546.03;5040145;28;20938;-62
2023/02/18 02:52:11;;;;;;;16.60;10.48;;;10.00;99.90;;;10.12;100.00;98541.69;5027001;28;20136;-62
2023/02/18 02:54:38;;;;;;;12.35;9.90;;;10.00;99.90;;;10.08;100.00;98546.97;5026076;28;20049;-62
2023/02/18 02:57:08;;;;;;;11.18;9.07;;;10.00;99.90;;;10.15;100.00;98549.41;5024932;28;20052;-62
2023/02/18 02:59:40;;;;;;;10.88;8.23;;;10.00;99.90;;;10.02;100.00;98555.78;5023160;28;20128;-62
2023/02/18 03:02:22;;;;;;;10.98;8.40;;;10.00;99.90;;;10.11;100.00;98503.66;5018368;28;20068;-62
2023/02/18 03:05:09;;;;;;;10.48;8.77;;;10.10;99.90;;;10.09;100.00;98523.59;5024458;28;20045;-62
2023/02/18 03:08:01;;;;;;;10.95;8.80;;;10.20;99.90;;;10.00;100.00;98521.25;5017766;28;20045;-62
2023/02/18 03:10:52;;;;;;;11.25;8.80;;;10.30;99.90;;;10.12;100.00;98507.09;5025014;28;20056;-63
2023/02/18 03:14:08;;;;;;;13.68;9.98;;;10.20;99.90;;;9.97;100.00;98496.25;5027314;28;20149;-61
2023/02/18 03:16:48;;;;;;;10.43;8.32;;;10.10;99.90;;;10.04;100.00;98490.00;5014615;28;20417;-62
2023/02/18 03:19:46;;;;;;;13.25;9.40;;;10.10;99.90;;;10.03;100.00;98483.13;5026433;28;20158;-62
2023/02/18 03:22:29;;;;;;;11.15;8.73;;;10.10;99.90;;;10.01;100.00;98494.41;5020260;28;20050;-62
2023/02/18 03:24:58;;;;;;;11.82;8.75;;;10.20;99.90;;;10.09;100.00;98484.69;5026172;28;20221;-62
2023/02/18 03:27:35;;;;;;;9.32;7.95;;;10.20;99.90;;;10.24;100.00;98473.03;5021937;28;20172;-65
2023/02/18 03:30:21;;;;;;;8.95;7.50;;;10.20;99.90;;;10.09;100.00;98487.28;5023371;28;20048;-63
2023/02/18 03:32:55;;;;;;;10.00;8.07;;;10.20;99.90;;;10.17;100.00;98469.78;5023509;28;20147;-62
2023/02/18 03:35:23;;;;;;;10.40;8.65;;;10.20;99.90;;;9.99;100.00;98468.53;5025320;28;20049;-63
2023/02/18 03:37:59;;;;;;;11.13;8.02;;;10.20;99.90;;;10.03;100.00;98480.53;5026519;28;20053;-62
2023/02/18 03:40:29;;;;;;;11.32;8.23;;;10.20;99.90;;;10.07;100.00;98473.50;5025988;28;20064;-62
2023/02/18 03:42:59;;;;;;;8.07;7.00;;;10.20;99.90;;;10.02;100.00;98472.78;5024596;28;20536;-62
2023/02/18 03:45:27;;;;;;;12.27;7.68;;;10.30;99.90;;;10.07;100.00;98491.66;5025372;28;20061;-63
2023/02/18 03:47:54;;;;;;;10.95;8.32;;;10.20;99.90;;;10.02;100.00;98480.56;5023998;28;20124;-63
2023/02/18 03:50:21;;;;;;;9.52;8.05;;;10.20;99.90;;;10.01;100.00;98473.66;4993195;28;20045;-62
2023/02/18 03:52:49;;;;;;;11.10;7.32;;;10.30;99.90;;;10.15;100.00;98470.69;5021119;28;20050;-63
2023/02/18 03:55:16;;;;;;;8.68;7.13;;;10.20;99.90;;;9.91;100.00;98473.03;5024659;28;20054;-60
2023/02/18 03:57:43;;;;;;;10.70;6.85;;;10.20;99.90;;;9.93;100.00;98475.63;5024907;28;20131;-62
2023/02/18 04:00:11;;;;;;;10.32;7.43;;;10.30;99.90;;;9.93;100.00;98465.25;5025793;28;20052;-62
2023/02/18 04:02:38;;;;;;;7.60;6.75;;;10.30;99.90;;;9.93;100.00;98449.69;5025654;28;20054;-62
2023/02/18 04:05:05;;;;;;;9.57;6.75;;;10.20;99.90;;;9.97;100.00;98448.72;5025452;28;20468;-62
2023/02/18 04:07:33;;;;;;;9.07;7.50;;;10.10;99.90;;;9.81;100.00;98453.44;5020848;28;20064;-62
2023/02/18 04:10:00;;;;;;;9.05;7.05;;;10.10;99.90;;;9.81;100.00;98446.50;5020612;28;20063;-62
2023/02/18 04:12:27;;;;;;;7.50;5.97;;;10.10;99.90;;;9.91;100.00;98441.94;5025171;28;20189;-62
2023/02/18 04:14:54;;;;;;;9.18;7.25;;;10.00;99.90;;;9.84;100.00;98446.41;5023788;28;20117;-60
2023/02/18 04:17:21;;;;;;;8.23;6.60;;;10.10;99.90;;;9.81;100.00;98466.41;5020500;28;20051;-63
2023/02/18 04:19:48;;;;;;;10.23;8.05;;;10.00;99.90;;;9.78;100.00;98436.22;5028140;28;20046;-62
2023/02/18 04:22:15;;;;;;;16.17;7.78;;;10.00;99.90;;;9.70;100.00;98456.31;5029568;28;20052;-62
2023/02/18 04:24:42;;;;;;;10.23;6.57;;;10.00;99.90;;;9.77;100.00;98438.84;5024430;28;20049;-62
2023/02/18 04:27:09;;;;;;;8.80;6.70;;;10.00;99.90;;;9.68;100.00;98431.31;5030377;28;20045;-63
2023/02/18 04:29:36;;;;;;;11.95;7.35;;;10.00;99.90;;;9.63;100.00;98437.44;5026596;28;20605;-62
2023/02/18 04:32:03;;;;;;;8.93;6.50;;;10.10;99.90;;;9.69;100.00;98439.03;5029605;28;20049;-61
2023/02/18 04:34:30;;;;;;;8.38;6.22;;;10.00;99.90;;;9.73;100.00;98453.63;5028161;28;20373;-62
2023/02/18 04:36:58;;;;;;;7.18;5.90;;;10.00;99.90;;;9.76;100.00;98442.31;5028423;28;20128;-62
2023/02/18 04:39:24;;;;;;;9.82;6.20;;;10.00;99.90;;;9.56;100.00;98448.88;5027296;28;20056;-62
2023/02/18 04:41:51;;;;;;;8.30;5.70;;;10.00;99.90;;;9.61;100.00;98436.63;5030164;28;20119;-62
2023/02/18 04:44:18;;;;;;;7.63;5.53;;;10.10;99.90;;;9.57;100.00;98440.19;5029542;28;20045;-62
2023/02/18 04:46:46;;;;;;;7.43;5.38;;;10.10;99.90;;;9.51;100.00;98448.13;5041844;28;20045;-62
2023/02/18 04:49:13;;;;;;;8.82;6.28;;;10.00;99.90;;;9.57;100.00;98441.94;5024043;28;20772;-62
2023/02/18 04:51:40;;;;;;;8.80;5.75;;;10.00;99.90;;;9.57;100.00;98428.97;5026510;28;20038;-61
2023/02/18 04:54:07;;;;;;;7.05;5.65;;;10.00;99.90;;;9.61;100.00;98421.09;5028076;28;20128;-61
2023/02/18 04:56:34;;;;;;;6.93;5.68;;;9.90;99.90;;;9.62;100.00;98419.34;5029183;28;20049;-62
2023/02/18 04:59:01;;;;;;;8.73;6.38;;;9.90;99.90;;;9.52;100.00;98417.88;5029533;28;20049;-62
2023/02/18 05:01:28;;;;;;;9.15;6.22;;;10.00;99.90;;;9.49;100.00;98424.00;5028148;28;20460;-62
2023/02/18 05:03:55;;;;;;;9.43;6.30;;;10.00;99.90;;;9.53;100.00;98419.56;5025894;28;20488;-62
2023/02/18 05:06:22;;;;;;;9.00;6.10;;;10.00;99.90;;;9.47;100.00;98432.69;5028178;28;20124;-62
2023/02/18 05:08:49;;;;;;;8.15;6.20;;;10.00;99.90;;;9.56;100.00;98424.69;5027411;28;20072;-61
2023/02/18 05:11:15;;;;;;;9.15;6.10;;;10.00;99.90;;;9.49;100.00;98431.78;5027947;28;20045;-62
2023/02/18 05:13:44;;;;;;;8.05;6.38;;;10.00;99.90;;;9.57;100.00;98429.81;5028466;28;20049;-62
2023/02/18 05:16:11;;;;;;;7.72;6.07;;;10.00;99.90;;;9.52;100.00;98410.94;5026263;28;20076;-62
2023/02/18 05:18:38;;;;;;;12.35;6.85;;;9.90;99.90;;;9.52;100.00;98436.88;5024490;28;20527;-63
2023/02/18 05:21:05;;;;;;;9.73;7.13;;;9.90;99.90;;;9.50;100.00;98428.28;5027763;28;20058;-62
2023/02/18 05:23:33;;;;;;;9.82;7.78;;;9.90;99.90;;;9.50;100.00;98420.50;5028309;28;20041;-62
2023/02/18 05:25:59;;;;;;;10.13;7.97;;;9.90;99.90;;;9.59;100.00;98422.84;5026599;28;20049;-62
2023/02/18 05:28:26;;;;;;;11.98;7.82;;;9.80;99.90;;;9.43;100.00;98443.13;5028132;28;20057;-62
2023/02/18 05:30:53;;;;;;;14.10;8.35;;;9.90;99.90;;;9.58;100.00;98425.50;5027276;28;20049;-62
2023/02/18 05:33:21;;;;;;;11.18;7.63;;;9.90;99.90;;;9.53;100.00;98428.19;5026338;28;20065;-62
2023/02/18 05:35:48;;;;;;;10.98;8.00;;;9.80;99.90;;;9.47;100.00;98428.34;5026467;28;20050;-62
2023/02/18 05:38:15;;;;;;;9.82;8.80;;;9.80;99.90;;;9.57;100.00;98421.19;5026163;28;20404;-62
2023/02/18 05:40:42;;;;;;;11.13;8.43;;;9.80;99.90;;;9.54;100.00;98427.31;5027202;28;20048;-62
2023/02/18 05:43:09;;;;;;;11.70;8.48;;;9.70;99.90;;;9.57;100.00;98441.94;5026450;28;20046;-62
2023/02/18 05:45:36;;;;;;;12.98;9.27;;;9.70;99.90;;;9.39;100.00;98436.31;5028885;28;20049;-62
2023/02/18 05:48:03;;;;;;;11.27;9.00;;;9.80;99.90;;;9.52;100.00;98417.88;5028139;28;20368;-62
2023/02/18 05:50:30;;;;;;;13.60;9.57;;;9.80;99.90;;;9.53;100.00;98435.13;5027525;28;20079;-62
2023/02/18 05:52:57;;;;;;;13.13;8.70;;;9.90;99.90;;;9.50;100.00;98442.97;5025691;28;20050;-62
2023/02/18 05:55:24;;;;;;;13.88;10.48;;;9.90;99.90;;;9.58;100.00;98443.66;5025125;28;20064;-63
2023/02/18 05:57:51;;;;;;;11.82;9.90;;;9.90;99.90;;;9.57;100.00;98440.19;5025469;28;20064;-62
2023/02/18 06:00:19;;;;;;;17.75;10.65;;;9.90;99.90;;;9.60;100.00;98455.69;5027411;28;20053;-63
2023/02/18 06:02:46;;;;;;;14.25;9.88;;;9.90;99.90;;;9.60;100.00;98450.50;5027435;28;20456;-62
2023/02/18 06:05:13;;;;;;;14.50;10.80;;;9.90;99.90;;;9.64;100.00;98461.63;5025294;28;20537;-62
2023/02/18 06:07:40;;;;;;;13.45;10.60;;;9.90;99.90;;;9.64;100.00;98462.47;5026287;28;20128;-62
2023/02/18 06:10:08;;;;;;;14.15;11.70;;;10.00;99.90;;;9.74;100.00;98462.25;5027012;28;20128;-62
2023/02/18 06:12:35;;;;;;;14.38;11.57;;;10.00;99.90;;;9.66;100.00;98459.84;5008232;28;20145;-61
2023/02/18 06:15:02;;;;;;;13.05;11.38;;;10.00;99.90;;;9.70;100.00;98469.25;5026137;28;20079;-62
2023/02/18 06:17:29;;;;;;;14.75;12.38;;;10.00;99.90;;;9.67;100.00;98443.41;5026047;28;20057;-62
2023/02/18 06:19:56;;;;;;;15.70;12.15;;;10.00;99.90;;;9.69;100.00;98445.97;5026094;28;20473;-62
2023/02/18 06:22:23;;;;;;;15.10;12.43;;;10.10;99.90;;;9.72;100.00;98451.94;5026362;28;20050;-62
2023/02/18 06:24:50;;;;;;;15.23;13.30;;;10.00;99.90;;;9.66;100.00;98454.66;5027443;28;20046;-62
2023/02/18 06:27:17;;;;;;;14.82;13.20;;;10.00;99.90;;;9.73;100.00;98481.28;5026368;28;20524;-62
2023/02/18 06:29:44;;;;;;;16.05;12.30;;;10.10;99.90;;;9.82;100.00;98435.22;5027255;28;20060;-62
2023/02/18 06:32:11;;;;;;;15.05;11.90;;;10.00;99.90;;;9.75;100.00;98453.59;5024659;28;20678;-62
2023/02/18 06:34:39;;;;;;;16.83;13.75;;;10.10;99.90;;;9.88;100.00;98451.53;5025647;28;20053;-62
2023/02/18 06:37:06;;;;;;;14.95;13.23;;;10.10;99.90;;;9.90;100.00;98440.25;5026438;28;20100;-62
2023/02/18 06:39:33;;;;;;;14.43;12.10;;;10.10;99.90;;;9.91;100.00;98433.31;5024739;28;20428;-61
2023/02/18 06:42:00;;;;;;;17.17;14.15;;;10.10;99.90;;;9.89;100.00;98435.09;5022089;28;20140;-62
2023/02/18 06:44:27;;;;;;;16.23;13.98;;;10.10;99.90;;;9.92;100.00;98422.03;5026713;28;20092;-62
2023/02/18 06:46:54;;;;;;;14.73;12.70;;;10.20;99.90;;;9.98;100.00;98416.69;5024502;28;20423;-62
2023/02/18 06:49:21;;;;;;;15.13;12.57;;;10.20;99.90;;;9.85;100.00;98421.34;5026017;28;20129;-62
2023/02/18 06:51:48;;;;;;;17.48;13.50;;;10.10;99.90;;;9.88;100.00;98421.28;5023181;28;20132;-62
2023/02/18 06:54:14;;;;;;;16.50;13.18;;;10.10;99.90;;;9.87;100.00;98429.94;5026148;28;20057;-62
2023/02/18 06:56:41;;;;;;;16.70;12.95;;;10.20;99.90;;;9.88;100.00;98410.06;5043154;28;20081;-62
2023/02/18 06:59:08;;;;;;;16.40;13.73;;;10.20;99.90;;;9.98;100.00;98403.72;5025417;28;20053;-62
2023/02/18 07:01:35;;;;;;;16.75;12.73;;;10.20;99.90;;;9.85;100.00;98410.97;5025392;28;20054;-61
2023/02/18 07:04:02;;;;;;;16.48;12.55;;;10.30;99.90;;;9.94;100.00;98405.53;5024477;28;20068;-62
2023/02/18 07:06:29;;;;;;;16.73;14.02;;;10.30;99.90;;;9.99;100.00;98402.81;5026086;28;20049;-62
2023/02/18 07:08:56;;;;;;;14.88;12.98;;;10.30;99.90;;;9.96;100.00;98421.06;5026989;28;20152;-61
2023/02/18 07:11:23;;;;;;;18.10;12.95;;;10.20;99.90;;;10.09;100.00;98398.25;5028344;28;20161;-62
2023/02/18 07:13:50;;;;;;;13.77;12.32;;;10.30;99.90;;;9.91;100.00;98384.03;5026716;28;20056;-63
2023/02/18 07:16:20;;;;;;;15.07;11.52;;;10.30;99.90;;;9.94;100.00;98395.16;5023965;28;20128;-62
2023/02/18 07:18:47;;;;;;;15.20;12.00;;;10.20;99.90;;;9.92;100.00;98393.50;5024079;28;20057;-62
2023/02/18 07:21:14;;;;;;;15.07;12.70;;;10.20;99.90;;;10.11;100.00;98375.72;5021365;28;20576;-63
2023/02/18 07:23:41;;;;;;;14.32;11.68;;;10.40;99.90;;;10.14;100.00;98383.41;5023827;28;20049;-62
2023/02/18 07:26:13;;;;;;;15.38;11.75;;;10.30;99.90;;;10.08;100.00;98361.09;5023984;28;20053;-62
2023/02/18 07:28:40;;;;;;;17.67;12.87;;;10.30;99.90;;;9.99;100.00;98380.34;5023556;28;20048;-62
2023/02/18 07:31:08;;;;;;;13.73;11.88;;;10.40;99.90;;;10.07;100.00;98367.16;5025232;28;20037;-63
2023/02/18 07:33:35;;;;;;;15.90;12.68;;;10.50;99.90;;;10.12;100.00;98356.66;5023223;28;20468;-62
2023/02/18 07:36:03;;;;;;;15.32;12.10;;;10.40;99.90;;;10.03;100.00;98371.59;5010392;28;20050;-62
2023/02/18 07:38:30;;;;;;;16.08;12.73;;;10.40;99.90;;;9.97;100.00;98344.97;5024198;28;20140;-62
2023/02/18 07:40:58;;;;;;;14.88;11.95;;;10.40;99.90;;;9.99;100.00;98374.28;5024465;28;20055;-61
2023/02/18 07:43:25;;;;;;;16.05;12.60;;;10.50;99.90;;;9.90;100.00;98354.66;5025711;28;20054;-62
2023/02/18 07:45:52;;;;;;;13.80;11.38;;;10.60;99.90;;;10.05;100.00;98367.19;5023144;28;20056;-62
2023/02/18 07:48:19;;;;;;;16.70;12.15;;;10.50;99.90;;;9.98;100.00;98372.59;5026498;28;20055;-62
2023/02/18 07:50:49;;;;;;;13.52;11.88;;;10.40;99.90;;;10.00;100.00;98370.81;5024045;28;20120;-63
2023/02/18 07:53:16;;;;;;;12.27;10.70;;;10.40;99.90;;;10.11;100.00;98371.38;5025090;28;20045;-62
2023/02/18 07:55:49;;;;;;;16.10;11.63;;;10.40;99.90;;;9.92;100.00;98371.03;5022905;28;20546;-62
2023/02/18 07:58:29;;;;;;;15.55;11.65;;;10.40;99.90;;;9.95;100.00;98385.66;5020360;28;20049;-62
2023/02/18 08:00:57;;;;;;;14.63;11.65;;;10.40;99.90;;;10.03;100.00;98378.50;5025507;28;20041;-61
2023/02/18 08:03:28;;;;;;;14.70;12.35;;;10.50;99.90;;;10.12;100.00;98398.16;5024455;28;20092;-62
2023/02/18 08:05:56;;;;;;;12.75;10.98;;;10.40;99.90;;;10.13;100.00;98374.78;5021927;28;20132;-62
2023/02/18 08:08:27;;;;;;;14.95;12.40;;;10.40;99.90;;;10.21;100.00;98382.31;5022999;28;20053;-62
2023/02/18 08:10:58;;;;;;;14.00;11.93;;;10.40;99.90;;;9.91;100.00;98392.66;5024380;28;20037;-62
2023/02/18 08:13:29;;;;;;;15.80;12.60;;;10.40;99.90;;;10.17;100.00;98391.09;5023925;28;20058;-62
2023/02/18 08:15:57;;;;;;;13.18;10.95;;;10.40;99.90;;;10.12;100.00;98395.56;5022716;28;20666;-62
2023/02/18 08:18:26;;;;;;;14.95;12.25;;;10.40;99.90;;;9.90;100.00;98397.88;5019229;28;20088;-62
2023/02/18 08:20:53;;;;;;;13.45;11.57;;;10.40;99.90;;;9.93;100.00;98397.81;5024325;28;20046;-62
2023/02/18 08:23:22;;;;;;;15.55;11.75;;;10.40;99.90;;;9.94;100.00;98381.34;5023974;28;20049;-62
2023/02/18 08:25:51;;;;;;;15.10;12.27;;;10.30;99.90;;;9.95;100.00;98389.09;5037564;28;20045;-63
2023/02/18 08:28:20;;;;;;;17.08;12.30;;;10.30;99.90;;;9.82;100.00;98395.50;5024748;28;20054;-62
2023/02/18 08:30:50;;;;;;;13.52;11.40;;;10.30;99.90;;;9.94;100.00;98395.16;5024201;28;20042;-62
2023/02/18 08:33:19;;;;;;;16.02;11.23;;;10.30;99.90;;;9.89;100.00;98394.44;5024636;28;20587;-62
2023/02/18 08:35:48;;;;;;;15.90;12.18;;;10.30;99.90;;;9.85;100.00;98387.63;5022842;28;20056;-62
2023/02/18 08:38:18;;;;;;;13.77;11.88;;;10.40;99.90;;;9.90;100.00;98397.88;5023733;28;20049;-63
2023/02/18 08:40:46;;;;;;;14.63;11.77;;;10.40;99.90;;;9.86;100.00;98402.31;5017613;28;20124;-62
2023/02/18 08:43:15;;;;;;;14.85;11.82;;;10.30;99.90;;;9.90;100.00;98398.75;5024863;28;20084;-62
2023/02/18 08:45:43;;;;;;;14.52;12.88;;;10.40;99.90;;;9.95;100.00;98399.47;5020890;28;20049;-63
2023/02/18 08:48:12;;;;;;;14.90;11.63;;;10.40;99.90;;;9.86;100.00;98384.16;5017624;28;20049;-63
2023/02/18 08:50:47;;;;;;;17.20;11.85;;;10.50;99.90;;;10.15;100.00;98375.59;5017609;28;20052;-62
2023/02/18 08:53:15;;;;;;;14.40;11.07;;;10.50;99.90;;;10.04;100.00;98393.19;5017205;28;20049;-63
2023/02/18 08:55:42;;;;;;;13.98;11.65;;;10.50;99.90;;;9.96;100.00;98387.34;5019568;28;20077;-62
2023/02/18 08:58:10;;;;;;;14.82;12.07;;;10.60;99.90;;;10.11;100.00;98363.59;5020330;28;20408;-62
2023/02/18 09:00:38;;;;;;;14.38;11.57;;;10.70;99.90;;;9.97;100.00;98355.34;5019599;28;20799;-62
2023/02/18 09:03:06;;;;;;;14.20;10.93;;;10.80;99.90;;;10.11;100.00;98375.72;5021459;28;20099;-61
2023/02/18 09:05:33;;;;;;;13.65;11.30;;;10.90;99.90;;;10.16;100.00;98369.50;5025527;28;20084;-62
2023/02/18 09:08:00;;;;;;;14.13;10.77;;;10.80;99.90;;;10.16;100.00;98348.72;5026093;28;20057;-62
2023/02/18 09:10:27;;;;;;;12.88;11.05;;;10.70;99.90;;;10.22;100.00;98376.25;5026231;28;20100;-62
2023/02/18 09:12:54;;;;;;;13.25;11.32;;;10.80;99.90;;;10.09;100.00;98377.50;5025052;28;20457;-62
2023/02/18 09:15:21;;;;;;;14.82;11.38;;;10.80;99.90;;;10.15;100.00;98369.53;5019997;28;20049;-63
2023/02/18 09:17:48;;;;;;;13.90;10.57;;;10.80;99.90;;;10.15;100.00;98367.81;5027785;28;20057;-62
2023/02/18 09:20:14;;;;;;;13.43;10.57;;;10.60;99.90;;;9.94;100.00;98399.50;5028716;28;20076;-65
2023/02/18 09:22:44;;;;;;;15.20;11.82;;;10.70;99.90;;;9.96;100.00;98390.78;5027770;28;20135;-65
2023/02/18 09:25:11;;;;;;;14.90;11.20;;;10.60;99.90;;;9.89;100.00;98391.84;5021136;28;20151;-66
2023/02/18 09:27:38;;;;;;;13.23;10.73;;;10.60;99.90;;;9.92;100.00;98403.88;5023394;28;20080;-66
2023/02/18 09:30:06;;;;;;;15.43;11.88;;;10.70;99.90;;;10.03;100.00;98394.06;5022568;28;20095;-65
2023/02/18 09:32:33;;;;;;;14.52;11.18;;;10.60;99.90;;;9.99;100.00;98415.78;5024446;28;20049;-65
2023/02/18 09:35:05;;;;;;;15.60;11.63;;;10.60;99.90;;;9.79;100.00;98416.34;5022035;28;20049;-66
2023/02/18 09:37:32;;;;;;;13.75;11.18;;;10.60;99.90;;;10.00;100.00;98400.19;5020341;28;20149;-65
2023/02/18 09:39:58;;;;;;;13.00;10.70;;;10.50;99.90;;;9.92;100.00;98393.50;5025228;28;20516;-65
2023/02/18 09:42:33;;;;;;;15.75;11.45;;;10.50;99.90;;;9.76;100.00;98411.19;5025221;28;20490;-66
2023/02/18 09:45:04;;;;;;;13.90;10.48;;;10.50;99.90;;;9.80;100.00;98418.88;5036559;28;20160;-65
2023/02/18 09:47:41;;;;;;;14.25;11.25;;;10.60;99.90;;;9.77;100.00;98381.81;5024126;28;20744;-66
2023/02/18 09:50:30;;;;;;;13.63;10.98;;;10.50;99.90;;;9.81;100.00;98406.78;5032624;28;20054;-65
2023/02/18 09:53:00;;;;;;;16.70;10.77;;;10.50;99.90;;;9.64;100.00;98425.34;5023760;28;20389;-65
2023/02/18 09:55:33;;;;;;;15.85;11.43;;;10.50;99.90;;;9.75;100.00;98417.28;5024881;28;20049;-65
2023/02/18 09:58:11;;;;;;;12.85;10.63;;;10.50;99.90;;;9.73;100.00;98396.59;5024293;28;20053;-65
2023/02/18 10:00:53;;;;;;;13.13;10.73;;;10.60;99.90;;;9.75;100.00;98394.81;5034367;28;20056;-65
2023/02/18 10:03:24;;;;;;;14.02;10.80;;;10.50;99.90;;;9.65;100.00;98403.72;5020762;28;20058;-65
2023/02/18 10:06:15;;;;;;;13.70;11.43;;;10.40;99.90;;;9.80;100.00;98398.13;5017375;28;20200;-65
2023/02/18 10:08:49;;;;;;;16.58;11.20;;;10.50;99.90;;;9.82;100.00;98411.91;5019907;28;20051;-65
2023/02/18 10:11:39;;;;;;;13.82;10.38;;;10.40;99.90;;;9.83;100.00;98405.84;5005952;28;20115;-66
2023/02/18 10:14:12;;;;;;;14.25;10.60;;;10.50;99.90;;;9.94;100.00;98409.88;5024880;28;20053;-65
2023/02/18 10:16:40;;;;;;;14.27;10.95;;;10.40;99.90;;;9.81;100.00;98405.03;5023513;28;20049;-65
2023/02/18 10:19:36;;;;;;;16.75;11.27;;;10.50;99.90;;;9.98;100.00;98396.78;5024121;28;20667;-65
2023/02/18 10:22:07;;;;;;;14.73;11.40;;;10.50;99.90;;;9.97;100.00;98389.06;5018467;28;20415;-66
2023/02/18 10:24:43;;;;;;;12.50;10.30;;;10.60;99.90;;;9.99;100.00;98385.53;5042588;28;20448;-65